Time;durP1;ratioP1;P1;durP2;ratioP2;P2;SDS_P1;SDS_P2;PMS_P1;PMS_P2;Temp;Humidity;BMP_temperature;BMP_pressure;BME280_temperature;BME280_humidity;BME280_pressure;Samples;Min_cycle;Max_cycle;Signal;HPM_P1;HPM_P2
2022/07/23 00:00:11;;;;;;;12.20;5.65;;;;;;;;;;5006760;28;20014;-42
2022/07/23 00:02:37;;;;;;;9.20;5.65;;;;;;;;;;5000150;28;20471;-43
2022/07/23 00:05:03;;;;;;;9.75;5.90;;;;;;;;;;5004894;28;20038;-46
2022/07/23 00:07:29;;;;;;;7.53;5.63;;;;;;;;;;5005066;28;20026;-43
2022/07/23 00:09:55;;;;;;;16.10;6.60;;;;;;;;;;5006360;28;20033;-43
2022/07/23 00:12:21;;;;;;;11.05;5.55;;;;;;;;;;5005461;28;20413;-44
2022/07/23 00:14:47;;;;;;;14.70;6.22;;;;;;;;;;5008186;28;20445;-46
2022/07/23 00:17:12;;;;;;;6.97;5.72;;;;;;;;;;5003955;28;20038;-45
2022/07/23 00:19:38;;;;;;;12.73;6.05;;;;;;;;;;5004163;28;20022;-46
2022/07/23 00:22:03;;;;;;;7.13;5.55;;;;;;;;;;5001398;28;20475;-45
2022/07/23 00:24:29;;;;;;;11.13;5.70;;;;;;;;;;5006372;28;20059;-47
2022/07/23 00:26:55;;;;;;;8.52;5.70;;;;;;;;;;5006962;28;20066;-50
2022/07/23 00:29:20;;;;;;;12.55;5.63;;;;;;;;;;5003885;28;20104;-45
2022/07/23 00:31:46;;;;;;;11.50;5.35;;;;;;;;;;5005237;28;20049;-49
2022/07/23 00:34:12;;;;;;;12.50;5.78;;;;;;;;;;5007166;28;20030;-44
2022/07/23 00:36:38;;;;;;;10.30;5.70;;;;;;;;;;5004767;28;20022;-42
2022/07/23 00:39:03;;;;;;;12.50;5.80;;;;;;;;;;5008296;28;20121;-49
2022/07/23 00:41:29;;;;;;;10.70;5.85;;;;;;;;;;5004084;28;20026;-45
2022/07/23 00:43:55;;;;;;;11.00;6.03;;;;;;;;;;5004813;28;20033;-46
2022/07/23 00:46:21;;;;;;;9.40;6.22;;;;;;;;;;5007702;28;20026;-46
2022/07/23 00:48:48;;;;;;;12.23;5.82;;;;;;;;;;5006266;28;20109;-46
2022/07/23 00:51:16;;;;;;;8.20;5.68;;;;;;;;;;5002180;28;20125;-45
2022/07/23 00:53:42;;;;;;;8.05;5.35;;;;;;;;;;5002707;28;20022;-45
2022/07/23 00:56:08;;;;;;;9.35;5.43;;;;;;;;;;5006978;28;20052;-46
2022/07/23 00:58:35;;;;;;;8.82;5.30;;;;;;;;;;5009091;28;20120;-43
2022/07/23 01:01:00;;;;;;;9.82;5.38;;;;;;;;;;5003481;28;20068;-43
2022/07/23 01:03:26;;;;;;;8.88;5.45;;;;;;;;;;5006152;28;20022;-38
2022/07/23 01:05:53;;;;;;;8.02;5.63;;;;;;;;;;5006431;28;20557;-46
2022/07/23 01:08:19;;;;;;;12.57;5.75;;;;;;;;;;5006995;28;20022;-48
2022/07/23 01:10:46;;;;;;;12.80;5.65;;;;;;;;;;4998749;28;20513;-42
2022/07/23 01:13:12;;;;;;;15.32;5.90;;;;;;;;;;5006164;28;20475;-45
2022/07/23 01:15:38;;;;;;;8.45;5.63;;;;;;;;;;5004494;28;20058;-42
2022/07/23 01:18:05;;;;;;;7.38;5.43;;;;;;;;;;5004660;28;20117;-43
2022/07/23 01:20:32;;;;;;;12.85;5.85;;;;;;;;;;5010149;28;20026;-45
2022/07/23 01:22:58;;;;;;;8.30;6.10;;;;;;;;;;5009233;28;20117;-49
2022/07/23 01:25:24;;;;;;;9.55;5.45;;;;;;;;;;5008358;28;20165;-43
2022/07/23 01:27:52;;;;;;;10.32;5.68;;;;;;;;;;5007452;28;20490;-44
2022/07/23 01:30:18;;;;;;;13.10;5.80;;;;;;;;;;5008921;28;20798;-43
2022/07/23 01:32:43;;;;;;;8.20;5.93;;;;;;;;;;5007317;28;20026;-44
2022/07/23 01:35:11;;;;;;;12.60;5.80;;;;;;;;;;5010086;28;20113;-42
2022/07/23 01:37:37;;;;;;;12.45;5.70;;;;;;;;;;5008497;28;20092;-42
2022/07/23 01:40:04;;;;;;;15.40;6.13;;;;;;;;;;5009402;28;20038;-44
2022/07/23 01:42:30;;;;;;;7.35;5.95;;;;;;;;;;5005037;28;20034;-46
2022/07/23 01:44:56;;;;;;;12.38;7.03;;;;;;;;;;5008988;28;20372;-46
2022/07/23 01:47:22;;;;;;;10.25;6.25;;;;;;;;;;5007976;28;20061;-45
2022/07/23 01:49:48;;;;;;;15.88;6.07;;;;;;;;;;5008685;28;20029;-47
2022/07/23 01:52:13;;;;;;;10.20;5.72;;;;;;;;;;5006932;28;20056;-44
2022/07/23 01:54:39;;;;;;;10.93;6.13;;;;;;;;;;5009606;28;20537;-47
2022/07/23 01:57:06;;;;;;;7.05;5.40;;;;;;;;;;5007193;28;20065;-42
2022/07/23 01:59:32;;;;;;;10.25;5.70;;;;;;;;;;5007331;28;20041;-43
2022/07/23 02:01:58;;;;;;;8.60;5.75;;;;;;;;;;5007261;28;20045;-43
2022/07/23 02:04:25;;;;;;;17.02;6.22;;;;;;;;;;5006946;28;20033;-45
2022/07/23 02:06:51;;;;;;;11.30;5.78;;;;;;;;;;5007416;28;20081;-43
2022/07/23 02:09:17;;;;;;;8.65;6.18;;;;;;;;;;5007580;28;20025;-47
2022/07/23 02:11:44;;;;;;;11.35;6.05;;;;;;;;;;5008903;28;20029;-45
2022/07/23 02:14:10;;;;;;;7.55;5.80;;;;;;;;;;5010340;28;20048;-42
2022/07/23 02:16:35;;;;;;;8.77;5.70;;;;;;;;;;5006948;28;20085;-44
2022/07/23 02:19:02;;;;;;;9.98;6.28;;;;;;;;;;5008458;28;20030;-48
2022/07/23 02:21:28;;;;;;;9.23;5.55;;;;;;;;;;5009354;28;20026;-47
2022/07/23 02:23:53;;;;;;;8.02;5.68;;;;;;;;;;5009328;28;20429;-43
2022/07/23 02:26:19;;;;;;;8.65;6.10;;;;;;;;;;5006837;28;20034;-46
2022/07/23 02:28:45;;;;;;;11.82;6.47;;;;;;;;;;5007615;28;20105;-50
2022/07/23 02:31:10;;;;;;;13.63;6.55;;;;;;;;;;5004915;28;20499;-45
2022/07/23 02:33:36;;;;;;;11.02;6.32;;;;;;;;;;5006792;28;20117;-46
2022/07/23 02:36:01;;;;;;;7.55;5.60;;;;;;;;;;5008408;28;20383;-47
2022/07/23 02:38:28;;;;;;;10.25;5.75;;;;;;;;;;5007166;28;20096;-44
2022/07/23 02:40:53;;;;;;;7.25;5.47;;;;;;;;;;5005183;28;20026;-40
2022/07/23 02:43:19;;;;;;;9.93;5.57;;;;;;;;;;5007424;28;20033;-45
2022/07/23 02:45:44;;;;;;;7.05;5.70;;;;;;;;;;5008449;28;20032;-47
2022/07/23 02:48:12;;;;;;;10.38;5.43;;;;;;;;;;5006168;28;20041;-48
2022/07/23 02:50:38;;;;;;;7.05;5.80;;;;;;;;;;5008457;28;20100;-42
2022/07/23 02:53:04;;;;;;;8.57;5.65;;;;;;;;;;5003105;28;20474;-47
2022/07/23 02:55:31;;;;;;;7.95;5.85;;;;;;;;;;5008289;28;20117;-44
2022/07/23 02:57:57;;;;;;;9.13;5.80;;;;;;;;;;5008223;28;20057;-42
2022/07/23 03:00:22;;;;;;;13.82;5.82;;;;;;;;;;5006906;28;20513;-43
2022/07/23 03:02:48;;;;;;;8.63;6.10;;;;;;;;;;5006614;28;20032;-42
2022/07/23 03:05:14;;;;;;;11.57;6.07;;;;;;;;;;5003026;28;20025;-43
2022/07/23 03:07:39;;;;;;;9.43;5.95;;;;;;;;;;5007874;28;20509;-43
2022/07/23 03:10:06;;;;;;;8.32;5.78;;;;;;;;;;5009848;28;20475;-44
2022/07/23 03:12:31;;;;;;;6.63;5.57;;;;;;;;;;5006451;28;20092;-44
2022/07/23 03:14:57;;;;;;;10.43;6.50;;;;;;;;;;5005486;28;20048;-45
2022/07/23 03:17:23;;;;;;;7.60;5.45;;;;;;;;;;5007787;28;20034;-44
2022/07/23 03:19:49;;;;;;;11.20;6.10;;;;;;;;;;5005751;28;20034;-43
2022/07/23 03:22:14;;;;;;;7.43;5.72;;;;;;;;;;5004366;28;20022;-42
2022/07/23 03:24:55;;;;;;;11.23;5.85;;;;;;;;;;5009360;28;20116;-43
2022/07/23 03:27:22;;;;;;;11.27;5.90;;;;;;;;;;5002321;28;20034;-45
2022/07/23 03:29:50;;;;;;;8.30;6.15;;;;;;;;;;5004331;28;20021;-44
2022/07/23 03:32:16;;;;;;;17.63;6.35;;;;;;;;;;5002686;28;20084;-42
2022/07/23 03:34:41;;;;;;;6.85;5.97;;;;;;;;;;5007701;28;20025;-42
2022/07/23 03:37:07;;;;;;;10.68;6.63;;;;;;;;;;5001823;28;20033;-47
2022/07/23 03:39:33;;;;;;;10.30;5.85;;;;;;;;;;5007955;28;20116;-47
2022/07/23 03:41:59;;;;;;;9.43;6.30;;;;;;;;;;5008225;28;20037;-42
2022/07/23 03:44:24;;;;;;;10.50;6.00;;;;;;;;;;5006171;28;20112;-42
2022/07/23 03:46:50;;;;;;;12.50;6.50;;;;;;;;;;5005839;28;20034;-45
2022/07/23 03:49:16;;;;;;;11.20;6.22;;;;;;;;;;5006317;28;20025;-48
2022/07/23 03:51:41;;;;;;;18.15;6.75;;;;;;;;;;5007068;28;20034;-42
2022/07/23 03:54:07;;;;;;;9.75;6.15;;;;;;;;;;5002493;28;20117;-42
2022/07/23 03:56:33;;;;;;;7.85;5.90;;;;;;;;;;5005937;28;20061;-44
2022/07/23 03:58:58;;;;;;;8.00;6.40;;;;;;;;;;5005718;28;20088;-43
2022/07/23 04:01:24;;;;;;;12.20;6.20;;;;;;;;;;5005378;28;20156;-44
2022/07/23 04:03:50;;;;;;;14.65;6.70;;;;;;;;;;5006641;28;20035;-43
2022/07/23 04:06:15;;;;;;;12.88;7.15;;;;;;;;;;5003925;28;20574;-42
2022/07/23 04:08:41;;;;;;;17.88;6.55;;;;;;;;;;5007610;28;20033;-42
2022/07/23 04:11:07;;;;;;;7.43;6.10;;;;;;;;;;5004248;28;20064;-44
2022/07/23 04:13:33;;;;;;;8.57;6.57;;;;;;;;;;5003658;28;20061;-43
2022/07/23 04:16:19;;;;;;;13.43;6.80;;;;;;;;;;5006003;28;20040;-47
2022/07/23 04:19:04;;;;;;;9.95;6.25;;;;;;;;;;5006084;28;20042;-49
2022/07/23 04:21:49;;;;;;;10.98;6.07;;;;;;;;;;5006065;28;20044;-43
2022/07/23 04:24:35;;;;;;;14.38;6.97;;;;;;;;;;5003659;28;20083;-43
2022/07/23 04:27:20;;;;;;;11.07;6.20;;;;;;;;;;5005211;28;20483;-42
2022/07/23 04:30:06;;;;;;;13.82;6.63;;;;;;;;;;5004145;28;20076;-48
2022/07/23 04:32:52;;;;;;;8.65;6.30;;;;;;;;;;5004274;28;20049;-48
2022/07/23 04:35:18;;;;;;;9.73;6.57;;;;;;;;;;5002467;28;20030;-45
2022/07/23 04:37:43;;;;;;;16.33;6.53;;;;;;;;;;5005830;28;20029;-45
2022/07/23 04:40:10;;;;;;;10.93;6.30;;;;;;;;;;5003395;28;20030;-45
2022/07/23 04:42:36;;;;;;;9.38;5.97;;;;;;;;;;5004492;28;20029;-44
2022/07/23 04:45:03;;;;;;;7.68;6.50;;;;;;;;;;5000103;28;20484;-42
2022/07/23 04:47:30;;;;;;;9.95;6.40;;;;;;;;;;5003531;28;20031;-43
2022/07/23 04:49:56;;;;;;;13.27;6.22;;;;;;;;;;5003904;28;20516;-42
2022/07/23 04:52:23;;;;;;;10.40;6.40;;;;;;;;;;5006491;28;20080;-46
2022/07/23 04:54:48;;;;;;;10.68;7.15;;;;;;;;;;5007523;28;20081;-45
2022/07/23 04:57:14;;;;;;;11.35;7.30;;;;;;;;;;5008335;28;20061;-44
2022/07/23 04:59:39;;;;;;;10.45;6.50;;;;;;;;;;5013370;28;20441;-42
2022/07/23 05:02:05;;;;;;;14.93;6.13;;;;;;;;;;5005832;28;20113;-42
2022/07/23 05:04:31;;;;;;;11.32;6.20;;;;;;;;;;5006637;28;20050;-47
2022/07/23 05:06:57;;;;;;;13.43;6.88;;;;;;;;;;5009666;28;20030;-49
2022/07/23 05:09:23;;;;;;;14.95;6.60;;;;;;;;;;5009352;28;20390;-46
2022/07/23 05:11:49;;;;;;;17.38;6.55;;;;;;;;;;5009750;28;20053;-43
2022/07/23 05:14:15;;;;;;;10.48;6.35;;;;;;;;;;5007171;28;20026;-42
2022/07/23 05:16:41;;;;;;;16.25;6.43;;;;;;;;;;5007645;28;20121;-43
2022/07/23 05:19:07;;;;;;;11.68;6.28;;;;;;;;;;5009109;28;20026;-42
2022/07/23 05:21:33;;;;;;;9.88;6.63;;;;;;;;;;5010262;28;20103;-45
2022/07/23 05:23:59;;;;;;;15.13;6.38;;;;;;;;;;5001642;28;20133;-42
2022/07/23 05:26:25;;;;;;;11.30;6.00;;;;;;;;;;5002299;28;20021;-42
2022/07/23 05:28:51;;;;;;;10.73;6.05;;;;;;;;;;5008415;28;20116;-45
2022/07/23 05:31:17;;;;;;;11.80;5.93;;;;;;;;;;5014357;28;20025;-44
2022/07/23 05:33:43;;;;;;;19.35;6.78;;;;;;;;;;5006141;28;20545;-46
2022/07/23 05:36:09;;;;;;;8.52;6.38;;;;;;;;;;5008980;28;20072;-44
2022/07/23 05:38:35;;;;;;;11.68;6.22;;;;;;;;;;5007773;28;20034;-47
2022/07/23 05:41:01;;;;;;;11.63;5.82;;;;;;;;;;5007213;28;20406;-44
2022/07/23 05:43:27;;;;;;;7.57;5.50;;;;;;;;;;5002204;28;20049;-45
2022/07/23 05:45:53;;;;;;;14.55;6.50;;;;;;;;;;5008924;28;20616;-45
2022/07/23 05:48:19;;;;;;;16.35;6.00;;;;;;;;;;5009365;28;20198;-45
2022/07/23 05:50:46;;;;;;;11.20;5.50;;;;;;;;;;5007599;28;20459;-42
2022/07/23 05:53:12;;;;;;;11.98;6.35;;;;;;;;;;5005654;28;20030;-44
2022/07/23 05:55:38;;;;;;;14.27;6.90;;;;;;;;;;5008122;28;20065;-42
2022/07/23 05:58:04;;;;;;;16.45;6.20;;;;;;;;;;5009679;28;20379;-42
2022/07/23 06:00:30;;;;;;;17.48;6.28;;;;;;;;;;5007951;28;20025;-43
2022/07/23 06:02:56;;;;;;;14.98;6.38;;;;;;;;;;5009127;28;20109;-41
2022/07/23 06:05:22;;;;;;;11.45;6.28;;;;;;;;;;5002890;28;20566;-44
2022/07/23 06:07:48;;;;;;;13.60;6.75;;;;;;;;;;5007499;28;20057;-42
2022/07/23 06:10:14;;;;;;;11.43;6.25;;;;;;;;;;5009513;28;20072;-40
2022/07/23 06:12:39;;;;;;;17.63;6.78;;;;;;;;;;5008049;28;20164;-42
2022/07/23 06:15:06;;;;;;;10.98;6.70;;;;;;;;;;5008434;28;20101;-42
2022/07/23 06:17:31;;;;;;;12.15;6.43;;;;;;;;;;5006532;28;20056;-42
2022/07/23 06:19:57;;;;;;;10.75;6.57;;;;;;;;;;5008573;28;20037;-42
2022/07/23 06:22:22;;;;;;;16.48;6.63;;;;;;;;;;5006951;28;20386;-42
2022/07/23 06:24:50;;;;;;;15.65;6.53;;;;;;;;;;5005994;28;20095;-44
2022/07/23 06:27:16;;;;;;;27.92;6.78;;;;;;;;;;5002454;28;20030;-42
2022/07/23 06:29:42;;;;;;;18.35;6.93;;;;;;;;;;5001102;28;20399;-42
2022/07/23 06:32:08;;;;;;;12.57;6.53;;;;;;;;;;5005746;28;20451;-44
2022/07/23 06:34:34;;;;;;;11.23;6.00;;;;;;;;;;4997694;28;20048;-42
2022/07/23 06:37:00;;;;;;;10.82;5.75;;;;;;;;;;5003186;28;20030;-43
2022/07/23 06:39:26;;;;;;;12.98;6.32;;;;;;;;;;5002473;28;20488;-42
2022/07/23 06:41:52;;;;;;;9.30;5.60;;;;;;;;;;5006634;28;20026;-42
2022/07/23 06:44:18;;;;;;;17.45;6.18;;;;;;;;;;4997943;28;20065;-42
2022/07/23 06:46:44;;;;;;;12.25;5.90;;;;;;;;;;5000811;28;20038;-42
2022/07/23 06:49:10;;;;;;;13.93;5.25;;;;;;;;;;5004850;28;20124;-42
2022/07/23 06:51:36;;;;;;;6.85;5.53;;;;;;;;;;5001666;28;20022;-45
2022/07/23 06:54:03;;;;;;;12.32;6.20;;;;;;;;;;5001416;28;20097;-42
2022/07/23 06:56:29;;;;;;;10.88;5.85;;;;;;;;;;4994476;28;20057;-42
2022/07/23 06:58:54;;;;;;;8.10;5.38;;;;;;;;;;4998494;28;20387;-44
2022/07/23 07:01:21;;;;;;;9.60;5.75;;;;;;;;;;5000160;28;20030;-43
2022/07/23 07:03:47;;;;;;;11.05;5.32;;;;;;;;;;5001988;28;20479;-43
2022/07/23 07:06:13;;;;;;;10.68;5.18;;;;;;;;;;5001922;28;20044;-43
2022/07/23 07:08:39;;;;;;;8.27;5.47;;;;;;;;;;4997873;28;20128;-42
2022/07/23 07:11:05;;;;;;;8.32;5.65;;;;;;;;;;5000046;28;20160;-44
2022/07/23 07:13:30;;;;;;;8.93;5.60;;;;;;;;;;5008951;28;20030;-44
2022/07/23 07:15:56;;;;;;;11.68;5.97;;;;;;;;;;5003313;28;20030;-43
2022/07/23 07:18:22;;;;;;;12.88;5.80;;;;;;;;;;4999523;28;20486;-45
2022/07/23 07:20:48;;;;;;;10.35;5.95;;;;;;;;;;4996638;28;20398;-42
2022/07/23 07:23:14;;;;;;;11.30;6.18;;;;;;;;;;4997342;28;20050;-41
2022/07/23 07:25:40;;;;;;;10.30;5.85;;;;;;;;;;4991353;28;20043;-43
2022/07/23 07:28:06;;;;;;;20.02;5.97;;;;;;;;;;4991432;28;20026;-42
2022/07/23 07:30:31;;;;;;;11.77;6.50;;;;;;;;;;4996812;28;20056;-42
2022/07/23 07:32:57;;;;;;;16.15;6.60;;;;;;;;;;4998553;28;20021;-43
2022/07/23 07:35:23;;;;;;;19.85;6.60;;;;;;;;;;5000661;28;20775;-41
2022/07/23 07:37:49;;;;;;;9.55;6.45;;;;;;;;;;4993316;28;20133;-42
2022/07/23 07:40:14;;;;;;;13.43;6.50;;;;;;;;;;5002322;28;20025;-43
2022/07/23 07:42:47;;;;;;;12.00;6.00;;;;;;;;;;4996474;28;20068;-43
2022/07/23 07:45:13;;;;;;;17.50;6.90;;;;;;;;;;4990058;28;20648;-42
2022/07/23 07:47:39;;;;;;;13.32;6.80;;;;;;;;;;4990259;28;20041;-43
2022/07/23 07:50:05;;;;;;;16.17;6.47;;;;;;;;;;5000207;28;20096;-42
2022/07/23 07:52:31;;;;;;;11.07;6.93;;;;;;;;;;4997274;28;20038;-42
2022/07/23 07:54:56;;;;;;;11.45;6.25;;;;;;;;;;5006032;28;20046;-47
2022/07/23 07:57:22;;;;;;;12.88;6.82;;;;;;;;;;5007591;28;20096;-42
2022/07/23 07:59:48;;;;;;;12.20;6.68;;;;;;;;;;5004744;28;20475;-42
2022/07/23 08:02:13;;;;;;;11.90;6.60;;;;;;;;;;5006210;28;20030;-44
2022/07/23 08:04:39;;;;;;;9.32;6.53;;;;;;;;;;5006658;28;20034;-42
2022/07/23 08:07:04;;;;;;;17.60;6.95;;;;;;;;;;5004501;28;20029;-43
2022/07/23 08:09:30;;;;;;;15.20;7.25;;;;;;;;;;5005099;28;20109;-46
2022/07/23 08:11:56;;;;;;;18.70;6.80;;;;;;;;;;5004718;28;20908;-42
2022/07/23 08:14:21;;;;;;;11.32;6.88;;;;;;;;;;5005309;28;20034;-47
2022/07/23 08:16:47;;;;;;;12.48;6.75;;;;;;;;;;5004642;28;20021;-44
2022/07/23 08:19:13;;;;;;;11.27;6.95;;;;;;;;;;5006342;28;20034;-42
2022/07/23 08:21:38;;;;;;;12.10;6.75;;;;;;;;;;5004322;28;20022;-43
2022/07/23 08:24:04;;;;;;;10.82;6.60;;;;;;;;;;5002927;28;20032;-43
2022/07/23 08:26:30;;;;;;;11.10;6.60;;;;;;;;;;5004241;28;20030;-45
2022/07/23 08:28:56;;;;;;;13.80;6.35;;;;;;;;;;5005859;28;20356;-42
2022/07/23 08:31:21;;;;;;;18.77;7.15;;;;;;;;;;5004550;28;20101;-43
2022/07/23 08:33:47;;;;;;;11.35;6.43;;;;;;;;;;5005668;28;20029;-42
2022/07/23 08:36:13;;;;;;;16.27;7.20;;;;;;;;;;5003045;28;20056;-42
2022/07/23 08:38:39;;;;;;;11.85;6.50;;;;;;;;;;5003401;28;20084;-43
2022/07/23 08:41:07;;;;;;;10.90;6.28;;;;;;;;;;5004138;28;20113;-49
2022/07/23 08:43:35;;;;;;;22.30;7.30;;;;;;;;;;5003465;28;20050;-43
2022/07/23 08:46:02;;;;;;;11.75;7.28;;;;;;;;;;5005122;28;20257;-46
2022/07/23 08:48:33;;;;;;;20.48;7.15;;;;;;;;;;5007369;28;20968;-42
2022/07/23 08:51:01;;;;;;;13.00;6.90;;;;;;;;;;5003002;28;20510;-44
2022/07/23 08:53:29;;;;;;;10.90;6.30;;;;;;;;;;5002081;28;20053;-42
2022/07/23 08:55:59;;;;;;;14.88;6.88;;;;;;;;;;5001477;28;20128;-44
2022/07/23 08:58:25;;;;;;;16.63;6.50;;;;;;;;;;5002781;28;20458;-46
2022/07/23 09:00:51;;;;;;;9.70;6.53;;;;;;;;;;5006595;28;20091;-42
2022/07/23 09:03:20;;;;;;;19.05;7.15;;;;;;;;;;5004499;28;20095;-42
2022/07/23 09:05:45;;;;;;;11.77;6.70;;;;;;;;;;5003804;28;20479;-42
2022/07/23 09:08:16;;;;;;;15.20;6.45;;;;;;;;;;5004964;28;20026;-42
2022/07/23 09:10:56;;;;;;;11.95;7.00;;;;;;;;;;5001719;28;20181;-42
2022/07/23 09:13:25;;;;;;;11.38;6.65;;;;;;;;;;4999665;28;20433;-46
2022/07/23 09:15:53;;;;;;;10.93;6.80;;;;;;;;;;5004844;28;20104;-45
2022/07/23 09:18:19;;;;;;;17.35;7.78;;;;;;;;;;5003324;28;20026;-43
2022/07/23 09:20:45;;;;;;;15.32;7.50;;;;;;;;;;5005199;28;20042;-47
2022/07/23 09:23:10;;;;;;;17.48;6.90;;;;;;;;;;5005085;28;20495;-42
2022/07/23 09:25:36;;;;;;;11.82;7.50;;;;;;;;;;5003196;28;20045;-43
2022/07/23 09:28:02;;;;;;;12.30;7.80;;;;;;;;;;5001434;28;20177;-43
2022/07/23 09:30:34;;;;;;;13.18;7.28;;;;;;;;;;5004210;28;20080;-44
2022/07/23 09:33:15;;;;;;;11.57;7.65;;;;;;;;;;5003138;28;20069;-42
2022/07/23 09:35:56;;;;;;;15.87;7.40;;;;;;;;;;5002928;28;20113;-44
2022/07/23 09:38:23;;;;;;;11.05;7.35;;;;;;;;;;5003754;28;20084;-43
2022/07/23 09:41:09;;;;;;;14.13;7.68;;;;;;;;;;5005887;28;20475;-44
2022/07/23 09:43:35;;;;;;;13.10;7.10;;;;;;;;;;5004437;28;20113;-44
2022/07/23 09:46:24;;;;;;;13.55;7.93;;;;;;;;;;5008734;28;20109;-43
2022/07/23 09:48:56;;;;;;;14.30;7.57;;;;;;;;;;5004699;28;20084;-43
2022/07/23 09:51:33;;;;;;;12.90;7.40;;;;;;;;;;5001463;28;20505;-46
2022/07/23 09:53:59;;;;;;;10.57;7.47;;;;;;;;;;5009138;28;20033;-48
2022/07/23 09:56:27;;;;;;;12.27;7.65;;;;;;;;;;5004528;28;20394;-42
2022/07/23 10:01:54;;;;;;;12.52;7.60;;;;;;;;;;5023470;28;20041;-45
2022/07/23 10:04:22;;;;;;;14.57;6.70;;;;;;;;;;5026591;28;20045;-45
2022/07/23 10:06:51;;;;;;;10.65;7.63;;;;;;;;;;5022614;28;20111;-43
2022/07/23 10:09:23;;;;;;;12.10;7.45;;;;;;;;;;5021572;28;20600;-43
2022/07/23 10:11:50;;;;;;;10.75;7.45;;;;;;;;;;5026270;28;20045;-46
2022/07/23 10:14:16;;;;;;;11.70;6.65;;;;;;;;;;5022445;28;20029;-46
2022/07/23 10:16:43;;;;;;;16.10;6.68;;;;;;;;;;5025039;28;20051;-48
2022/07/23 10:19:09;;;;;;;11.95;7.45;;;;;;;;;;5024890;28;20062;-48
2022/07/23 10:21:41;;;;;;;14.05;7.20;;;;;;;;;;5022758;28;20045;-43
2022/07/23 10:24:20;;;;;;;14.02;8.00;;;;;;;;;;5023285;28;20064;-47
2022/07/23 10:27:15;;;;;;;11.20;7.05;;;;;;;;;;5022053;28;20030;-48
2022/07/23 10:30:07;;;;;;;9.23;6.95;;;;;;;;;;4910992;29;20048;-47
2022/07/23 10:32:45;;;;;;;11.13;7.18;;;;;;;;;;4929758;29;20044;-46
2022/07/23 10:35:22;;;;;;;12.13;7.30;;;;;;;;;;4926683;29;20058;-42
2022/07/23 10:37:50;;;;;;;19.55;7.25;;;;;;;;;;4927960;29;20052;-44
2022/07/23 10:40:20;;;;;;;13.90;7.55;;;;;;;;;;4927686;29;20095;-43
2022/07/23 10:42:47;;;;;;;16.98;7.60;;;;;;;;;;4930222;29;20043;-47
2022/07/23 10:45:28;;;;;;;15.15;7.15;;;;;;;;;;4927270;29;20546;-47
2022/07/23 10:47:54;;;;;;;7.60;6.47;;;;;;;;;;4925941;29;20519;-43
2022/07/23 10:50:30;;;;;;;13.02;7.30;;;;;;;;;;4927227;29;20034;-43
2022/07/23 10:53:13;;;;;;;9.57;7.53;;;;;;;;;;4928460;29;20531;-43
2022/07/23 10:55:50;;;;;;;16.55;7.80;;;;;;;;;;4922545;29;20119;-42
2022/07/23 10:58:44;;;;;;;14.52;7.47;;;;;;;;;;4927915;29;20093;-45
2022/07/23 11:01:35;;;;;;;13.63;7.72;;;;;;;;;;4928904;29;20063;-45
2022/07/23 11:04:00;;;;;;;16.15;8.05;;;;;;;;;;4928985;29;20032;-49
2022/07/23 11:06:48;;;;;;;12.15;6.97;;;;;;;;;;4957823;28;20059;-44
2022/07/23 11:09:26;;;;;;;14.68;6.90;;;;;;;;;;5005550;28;20046;-43
2022/07/23 11:12:13;;;;;;;17.52;8.15;;;;;;;;;;5002214;28;20025;-42
2022/07/23 11:15:07;;;;;;;10.68;6.95;;;;;;;;;;5003978;28;20026;-45
2022/07/23 11:17:53;;;;;;;11.45;7.30;;;;;;;;;;5010492;28;20045;-42
2022/07/23 11:20:21;;;;;;;15.57;7.07;;;;;;;;;;5003761;28;20026;-49
2022/07/23 11:22:50;;;;;;;10.18;6.97;;;;;;;;;;5005750;28;20034;-43
2022/07/23 11:25:21;;;;;;;11.80;6.68;;;;;;;;;;5003835;28;20072;-42
2022/07/23 11:27:51;;;;;;;11.40;6.97;;;;;;;;;;5004341;28;20478;-43
2022/07/23 11:30:26;;;;;;;11.20;7.20;;;;;;;;;;4999726;28;20065;-43
2022/07/23 11:32:52;;;;;;;10.32;7.05;;;;;;;;;;5002696;28;20041;-47
2022/07/23 11:35:19;;;;;;;14.35;6.95;;;;;;;;;;5005367;28;20037;-42
2022/07/23 11:37:46;;;;;;;12.07;7.15;;;;;;;;;;5005222;28;20680;-43
2022/07/23 11:40:14;;;;;;;9.75;6.47;;;;;;;;;;5006244;28;20022;-43
2022/07/23 11:42:52;;;;;;;10.77;6.35;;;;;;;;;;5003938;28;20087;-42
2022/07/23 11:45:18;;;;;;;8.25;6.32;;;;;;;;;;5001945;28;20092;-45
2022/07/23 11:47:43;;;;;;;14.05;6.53;;;;;;;;;;5005254;28;20058;-43
2022/07/23 11:50:09;;;;;;;11.98;6.22;;;;;;;;;;5005289;28;20021;-44
2022/07/23 11:52:35;;;;;;;10.75;5.72;;;;;;;;;;5005768;28;20030;-43
2022/07/23 11:55:07;;;;;;;11.88;6.38;;;;;;;;;;5005909;28;20129;-42
2022/07/23 11:57:35;;;;;;;7.03;6.32;;;;;;;;;;5006010;28;20116;-42
2022/07/23 12:00:04;;;;;;;9.65;6.63;;;;;;;;;;5006910;28;20079;-42
2022/07/23 12:02:33;;;;;;;16.35;7.35;;;;;;;;;;5004313;28;20022;-42
2022/07/23 12:04:59;;;;;;;12.43;7.35;;;;;;;;;;4997700;28;20541;-43
2022/07/23 12:07:31;;;;;;;11.75;6.50;;;;;;;;;;5005647;28;20533;-43
2022/07/23 12:09:58;;;;;;;11.30;6.50;;;;;;;;;;5004994;28;20513;-44
2022/07/23 12:12:25;;;;;;;9.00;6.32;;;;;;;;;;5003894;28;20022;-43
2022/07/23 12:14:57;;;;;;;13.80;7.13;;;;;;;;;;5004453;28;20065;-45
2022/07/23 12:17:34;;;;;;;15.90;8.30;;;;;;;;;;5004146;28;20041;-46
2022/07/23 12:20:01;;;;;;;11.38;7.28;;;;;;;;;;5004383;28;20034;-44
2022/07/23 12:22:36;;;;;;;14.90;6.95;;;;;;;;;;5004903;28;20482;-43
2022/07/23 12:25:12;;;;;;;8.77;7.03;;;;;;;;;;5003572;28;20783;-46
2022/07/23 12:27:38;;;;;;;12.65;6.97;;;;;;;;;;5005940;28;20551;-43
2022/07/23 12:30:21;;;;;;;14.25;7.38;;;;;;;;;;5005379;28;20037;-45
2022/07/23 12:32:49;;;;;;;10.93;6.20;;;;;;;;;;5003923;28;20033;-43
2022/07/23 12:35:16;;;;;;;15.38;6.68;;;;;;;;;;5004561;28;20659;-44
2022/07/23 12:37:44;;;;;;;11.07;6.45;;;;;;;;;;5002101;28;20426;-45
2022/07/23 12:40:29;;;;;;;16.08;6.22;;;;;;;;;;5003017;28;20034;-43
2022/07/23 12:43:02;;;;;;;10.40;5.55;;;;;;;;;;4997098;28;20034;-43
2022/07/23 12:45:45;;;;;;;9.70;5.72;;;;;;;;;;5002418;28;20117;-45
2022/07/23 12:48:17;;;;;;;7.43;5.28;;;;;;;;;;4998859;28;20117;-45
2022/07/23 12:50:58;;;;;;;10.20;5.40;;;;;;;;;;5006790;28;20125;-43
2022/07/23 12:53:25;;;;;;;14.27;5.90;;;;;;;;;;5008242;28;20481;-43
2022/07/23 12:56:02;;;;;;;13.73;5.70;;;;;;;;;;5002275;28;20153;-44
2022/07/23 12:58:40;;;;;;;12.88;5.85;;;;;;;;;;5003102;28;20030;-42
2022/07/23 13:01:06;;;;;;;10.93;5.50;;;;;;;;;;5001730;28;20117;-43
2022/07/23 13:03:40;;;;;;;13.70;6.18;;;;;;;;;;5006542;28;20117;-44
2022/07/23 13:06:11;;;;;;;11.75;5.65;;;;;;;;;;4999484;28;20031;-43
2022/07/23 13:08:39;;;;;;;12.68;5.75;;;;;;;;;;5006309;28;20072;-42
2022/07/23 13:11:06;;;;;;;12.07;5.32;;;;;;;;;;5003445;28;20030;-42
2022/07/23 13:13:34;;;;;;;10.77;5.30;;;;;;;;;;5005217;28;20088;-42
2022/07/23 13:16:00;;;;;;;16.38;6.10;;;;;;;;;;5008775;28;20122;-43
2022/07/23 13:18:27;;;;;;;10.85;5.70;;;;;;;;;;5005244;28;20021;-43
2022/07/23 13:20:53;;;;;;;10.38;5.57;;;;;;;;;;5007599;28;20038;-43
2022/07/23 13:23:20;;;;;;;13.60;6.25;;;;;;;;;;5006464;28;20359;-43
2022/07/23 13:25:46;;;;;;;9.25;5.60;;;;;;;;;;5008197;28;20038;-42
2022/07/23 13:28:13;;;;;;;10.05;5.65;;;;;;;;;;5008534;28;20057;-45
2022/07/23 13:30:40;;;;;;;8.95;5.63;;;;;;;;;;5005139;28;20041;-42
2022/07/23 13:33:07;;;;;;;14.63;5.88;;;;;;;;;;5007346;28;20076;-43
2022/07/23 13:35:34;;;;;;;9.20;5.38;;;;;;;;;;5008321;28;20614;-44
2022/07/23 13:38:00;;;;;;;9.63;4.50;;;;;;;;;;5005862;28;20126;-42
2022/07/23 13:40:26;;;;;;;7.35;5.00;;;;;;;;;;5008599;28;20116;-43
2022/07/23 13:42:52;;;;;;;12.00;5.15;;;;;;;;;;5004737;28;20022;-42
2022/07/23 13:45:17;;;;;;;10.48;5.22;;;;;;;;;;5008634;28;20371;-43
2022/07/23 13:47:43;;;;;;;9.77;5.32;;;;;;;;;;5007955;28;20433;-43
2022/07/23 13:50:09;;;;;;;14.40;5.43;;;;;;;;;;5002663;28;20056;-43
2022/07/23 13:52:35;;;;;;;10.85;5.15;;;;;;;;;;5007014;28;20046;-45
2022/07/23 13:55:03;;;;;;;6.32;4.75;;;;;;;;;;5006722;28;20046;-42
2022/07/23 13:57:30;;;;;;;8.60;5.72;;;;;;;;;;5008197;28;20044;-43
2022/07/23 13:59:56;;;;;;;10.00;5.20;;;;;;;;;;5007440;28;20030;-42
2022/07/23 14:02:22;;;;;;;9.90;5.15;;;;;;;;;;5009112;28;20390;-44
2022/07/23 14:04:48;;;;;;;10.02;5.65;;;;;;;;;;5007115;28;20132;-43
2022/07/23 14:07:14;;;;;;;9.80;5.60;;;;;;;;;;5007694;28;20148;-43
2022/07/23 14:09:39;;;;;;;9.82;5.60;;;;;;;;;;5006090;28;20501;-42
2022/07/23 14:12:05;;;;;;;8.32;5.63;;;;;;;;;;5009553;28;20026;-42
2022/07/23 14:14:31;;;;;;;12.60;5.60;;;;;;;;;;5005722;28;20057;-42
2022/07/23 14:16:57;;;;;;;8.73;5.57;;;;;;;;;;5009131;28;20466;-43
2022/07/23 14:19:23;;;;;;;21.95;5.63;;;;;;;;;;5008788;28;20053;-43
2022/07/23 14:21:48;;;;;;;12.63;5.85;;;;;;;;;;5010761;28;20029;-42
2022/07/23 14:24:15;;;;;;;13.40;5.88;;;;;;;;;;5005965;28;20026;-42
2022/07/23 14:26:41;;;;;;;8.95;5.80;;;;;;;;;;5008889;28;20062;-43
2022/07/23 14:29:07;;;;;;;11.63;5.07;;;;;;;;;;5002661;28;20458;-44
2022/07/23 14:31:33;;;;;;;11.65;5.18;;;;;;;;;;5009300;28;20042;-42
2022/07/23 14:33:59;;;;;;;10.18;5.30;;;;;;;;;;5006929;28;20030;-42
2022/07/23 14:36:25;;;;;;;6.15;4.97;;;;;;;;;;5005443;28;20041;-44
2022/07/23 14:38:51;;;;;;;5.20;4.72;;;;;;;;;;5004358;28;20030;-43
2022/07/23 14:41:17;;;;;;;7.30;5.30;;;;;;;;;;5008822;28;20041;-43